Time;durP1;ratioP1;P1;durP2;ratioP2;P2;SDS_P1;SDS_P2;PMS_P1;PMS_P2;Temp;Humidity;BMP_temperature;BMP_pressure;BME280_temperature;BME280_humidity;BME280_pressure;Samples;Min_cycle;Max_cycle;Signal;HPM_P1;HPM_P2
2023/07/07 00:00:52;;;;;;;4.18;2.83;;;14.80;99.90;;;;;;5089553;28;20044;-76
2023/07/07 00:03:18;;;;;;;5.70;3.00;;;14.80;99.90;;;;;;5083631;28;20122;-75
2023/07/07 00:05:44;;;;;;;4.88;3.20;;;14.80;99.90;;;;;;5089122;28;20044;-75
2023/07/07 00:08:11;;;;;;;5.15;2.88;;;14.70;99.90;;;;;;5071911;28;20650;-75
2023/07/07 00:10:37;;;;;;;4.00;2.70;;;14.70;99.90;;;;;;5088733;28;20403;-76
2023/07/07 00:13:03;;;;;;;5.72;2.65;;;14.70;99.90;;;;;;5087618;28;20040;-75
2023/07/07 00:15:29;;;;;;;4.90;2.95;;;14.60;99.90;;;;;;5066161;28;20059;-76
2023/07/07 00:17:54;;;;;;;4.63;2.95;;;14.60;99.90;;;;;;5089081;28;20028;-75
2023/07/07 00:20:21;;;;;;;4.53;2.78;;;14.50;99.90;;;;;;5089401;28;20422;-75
2023/07/07 00:22:47;;;;;;;4.10;2.75;;;14.50;99.90;;;;;;5089671;28;20054;-76
2023/07/07 00:25:13;;;;;;;4.22;2.70;;;14.40;99.90;;;;;;5089187;28;20040;-76
2023/07/07 00:27:39;;;;;;;4.90;2.70;;;14.40;99.90;;;;;;5079175;28;20047;-75
2023/07/07 00:30:06;;;;;;;7.10;3.17;;;14.40;99.90;;;;;;5084504;28;20047;-76
2023/07/07 00:32:32;;;;;;;4.95;3.22;;;14.30;99.90;;;;;;5063670;28;20515;-76
2023/07/07 00:34:58;;;;;;;4.57;3.13;;;14.30;99.90;;;;;;5087384;28;20042;-76
2023/07/07 00:37:23;;;;;;;5.40;3.08;;;14.20;99.90;;;;;;5089398;28;20063;-76
2023/07/07 00:39:49;;;;;;;3.67;2.60;;;14.20;99.90;;;;;;5087390;28;20510;-75
2023/07/07 00:42:15;;;;;;;5.47;2.88;;;14.20;99.90;;;;;;5079902;28;20039;-75
2023/07/07 00:45:08;;;;;;;3.90;2.33;;;14.10;99.90;;;;;;5087903;28;20427;-74
2023/07/07 00:47:38;;;;;;;5.03;2.80;;;14.00;99.90;;;;;;5089741;28;20050;-75
2023/07/07 00:50:05;;;;;;;3.60;2.55;;;13.90;99.90;;;;;;5088840;28;20043;-75
2023/07/07 00:52:31;;;;;;;3.70;2.80;;;13.80;99.90;;;;;;5087651;28;20043;-75
2023/07/07 00:54:57;;;;;;;4.53;2.83;;;13.70;99.90;;;;;;5088222;28;20076;-74
2023/07/07 00:57:23;;;;;;;6.07;3.17;;;13.70;99.90;;;;;;5088080;28;20067;-74
2023/07/07 00:59:49;;;;;;;4.35;3.00;;;13.70;99.90;;;;;;5087877;28;20032;-75
2023/07/07 01:02:24;;;;;;;5.32;3.00;;;13.70;99.90;;;;;;5089235;28;20415;-75
2023/07/07 01:04:53;;;;;;;5.28;2.85;;;13.70;99.90;;;;;;5088825;28;20055;-75
2023/07/07 01:07:26;;;;;;;5.70;3.08;;;13.60;99.90;;;;;;5088563;28;20039;-75
2023/07/07 01:09:52;;;;;;;5.25;3.33;;;13.50;99.90;;;;;;5086579;28;20101;-75
2023/07/07 01:12:17;;;;;;;5.30;3.13;;;13.50;99.90;;;;;;5088540;28;20044;-75
2023/07/07 01:14:47;;;;;;;5.50;3.40;;;13.30;99.90;;;;;;5088659;28;20036;-75
2023/07/07 01:17:39;;;;;;;4.93;3.33;;;13.30;99.90;;;;;;5066878;28;20036;-76
2023/07/07 01:20:24;;;;;;;6.70;3.80;;;13.40;99.90;;;;;;5087885;28;20036;-75
2023/07/07 01:23:04;;;;;;;5.18;3.33;;;13.50;99.90;;;;;;5085565;28;20123;-75
2023/07/07 01:25:45;;;;;;;5.80;2.80;;;13.40;99.90;;;;;;5086595;28;20418;-75
2023/07/07 01:28:36;;;;;;;4.40;3.10;;;13.40;99.90;;;;;;5092274;28;20060;-76
2023/07/07 01:31:06;;;;;;;6.13;3.10;;;13.40;99.90;;;;;;5104757;28;20037;-75
2023/07/07 01:33:33;;;;;;;4.72;2.90;;;13.30;99.90;;;;;;5084573;28;20466;-75
2023/07/07 01:35:59;;;;;;;6.68;3.38;;;13.30;99.90;;;;;;5075168;28;20068;-75
2023/07/07 01:38:45;;;;;;;4.68;3.38;;;13.30;99.90;;;;;;5091821;28;20157;-75
2023/07/07 01:41:29;;;;;;;4.00;2.75;;;13.30;99.90;;;;;;5091419;28;20044;-74
2023/07/07 01:44:08;;;;;;;5.85;3.17;;;13.30;99.90;;;;;;5082745;28;20067;-75
2023/07/07 01:46:44;;;;;;;3.58;3.10;;;13.30;99.90;;;;;;5092060;28;20364;-75
2023/07/07 01:49:25;;;;;;;5.82;2.97;;;13.30;99.90;;;;;;5089949;28;20047;-75
2023/07/07 01:51:56;;;;;;;3.30;2.70;;;13.30;99.90;;;;;;5088086;28;20043;-75
2023/07/07 01:54:23;;;;;;;5.25;3.00;;;13.30;99.90;;;;;;5089227;28;20028;-75
2023/07/07 01:56:51;;;;;;;3.65;2.85;;;13.30;99.90;;;;;;5090511;28;20499;-75
2023/07/07 01:59:17;;;;;;;6.10;3.38;;;13.30;99.90;;;;;;5091590;28;20410;-73
2023/07/07 02:01:44;;;;;;;4.03;2.97;;;13.30;99.90;;;;;;5090515;28;20040;-76
2023/07/07 02:04:10;;;;;;;4.75;3.50;;;13.30;99.90;;;;;;5086721;28;20036;-75
2023/07/07 02:06:35;;;;;;;5.13;3.10;;;13.30;99.90;;;;;;5086365;28;20043;-75
2023/07/07 02:09:01;;;;;;;4.90;2.95;;;13.40;99.90;;;;;;5091749;28;20453;-75
2023/07/07 02:11:26;;;;;;;5.35;3.13;;;13.40;99.90;;;;;;5090780;28;20058;-75
2023/07/07 02:13:52;;;;;;;3.88;2.95;;;13.30;99.90;;;;;;5086913;28;20048;-75
2023/07/07 02:16:18;;;;;;;3.95;2.60;;;13.30;99.90;;;;;;5090850;28;20040;-75
2023/07/07 02:18:48;;;;;;;6.07;3.00;;;13.30;99.90;;;;;;5092791;28;20100;-75
2023/07/07 02:21:18;;;;;;;4.03;2.78;;;13.30;99.90;;;;;;5088220;28;20032;-75
2023/07/07 02:23:44;;;;;;;5.05;2.95;;;13.20;99.90;;;;;;5087383;28;20048;-74
2023/07/07 02:26:11;;;;;;;6.30;3.00;;;13.20;99.90;;;;;;5064674;28;20582;-75
2023/07/07 02:28:37;;;;;;;5.20;3.08;;;13.20;99.90;;;;;;5087044;28;20032;-75
2023/07/07 02:31:02;;;;;;;5.68;3.20;;;13.20;99.90;;;;;;5091836;28;20126;-75
2023/07/07 02:33:31;;;;;;;5.25;3.05;;;13.10;99.90;;;;;;5068597;28;20082;-75
2023/07/07 02:36:01;;;;;;;5.05;3.53;;;13.20;99.90;;;;;;5090860;28;20495;-75
2023/07/07 02:38:28;;;;;;;5.88;3.50;;;13.10;99.90;;;;;;5090088;28;20043;-75
2023/07/07 02:40:54;;;;;;;5.93;3.60;;;13.10;99.90;;;;;;5090833;28;20028;-75
2023/07/07 02:43:19;;;;;;;5.43;3.60;;;13.10;99.90;;;;;;5082571;28;20051;-75
2023/07/07 02:45:45;;;;;;;7.10;3.63;;;13.10;99.90;;;;;;5086400;28;20058;-76
2023/07/07 02:48:10;;;;;;;6.28;4.30;;;13.10;99.90;;;;;;5085929;28;20036;-74
2023/07/07 02:50:36;;;;;;;6.38;4.15;;;13.10;99.90;;;;;;5089905;28;20040;-75
2023/07/07 02:53:02;;;;;;;7.22;4.35;;;13.10;99.90;;;;;;5086242;28;20037;-75
2023/07/07 02:55:28;;;;;;;6.03;4.28;;;13.10;99.90;;;;;;5086511;28;20132;-75
2023/07/07 02:57:53;;;;;;;8.07;5.03;;;13.10;99.90;;;;;;5065710;28;20043;-74
2023/07/07 03:00:19;;;;;;;8.90;4.93;;;13.10;99.90;;;;;;5090953;28;20040;-75
2023/07/07 03:02:46;;;;;;;7.75;5.00;;;13.10;99.90;;;;;;5089249;28;20039;-75
2023/07/07 03:05:12;;;;;;;8.38;5.40;;;13.10;99.90;;;;;;5090276;28;20040;-75
2023/07/07 03:07:38;;;;;;;7.32;5.20;;;13.10;99.90;;;;;;5089556;28;20032;-75
2023/07/07 03:10:07;;;;;;;8.98;4.95;;;13.10;99.90;;;;;;5073470;28;20576;-75
2023/07/07 03:12:32;;;;;;;7.78;5.18;;;13.00;99.90;;;;;;5090280;28;20036;-74
2023/07/07 03:14:58;;;;;;;6.22;5.18;;;13.00;99.90;;;;;;5089844;28;20410;-75
2023/07/07 03:17:23;;;;;;;8.95;5.68;;;12.90;99.90;;;;;;5090316;28;20042;-74
2023/07/07 03:19:49;;;;;;;10.02;6.03;;;13.00;99.90;;;;;;5089421;28;20104;-76
2023/07/07 03:22:15;;;;;;;8.13;5.82;;;13.00;99.90;;;;;;5089865;28;20093;-75
2023/07/07 03:24:40;;;;;;;9.90;6.13;;;13.00;99.90;;;;;;5088490;28;20469;-75
2023/07/07 03:27:06;;;;;;;9.13;6.10;;;12.90;99.90;;;;;;5088399;28;20490;-75
2023/07/07 03:29:32;;;;;;;8.55;5.72;;;12.90;99.90;;;;;;5089390;28;20088;-74
2023/07/07 03:31:57;;;;;;;10.05;6.20;;;13.00;99.90;;;;;;5089676;28;20039;-74
2023/07/07 03:34:25;;;;;;;7.70;6.50;;;13.00;99.90;;;;;;5089306;28;20077;-75
2023/07/07 03:36:51;;;;;;;9.98;6.10;;;13.00;99.90;;;;;;5089683;28;20602;-75
2023/07/07 03:39:16;;;;;;;10.40;6.25;;;13.00;99.90;;;;;;5084976;28;20037;-74
2023/07/07 03:41:42;;;;;;;9.13;6.90;;;13.00;99.90;;;;;;5082258;28;20032;-74
2023/07/07 03:44:08;;;;;;;9.38;6.95;;;13.00;99.90;;;;;;5085765;28;20036;-74
2023/07/07 03:46:33;;;;;;;8.18;6.47;;;13.00;99.90;;;;;;5089485;28;20047;-74
2023/07/07 03:48:59;;;;;;;9.45;6.63;;;13.00;99.90;;;;;;5087694;28;20733;-74
2023/07/07 03:51:28;;;;;;;8.68;6.50;;;13.00;99.90;;;;;;5088764;28;20189;-75
2023/07/07 03:53:54;;;;;;;10.32;6.95;;;13.10;99.90;;;;;;5072013;28;20036;-75
2023/07/07 03:56:20;;;;;;;12.25;7.10;;;13.10;99.90;;;;;;5089498;28;20043;-75
2023/07/07 03:58:46;;;;;;;11.77;8.43;;;13.10;99.90;;;;;;5088644;28;20165;-74
2023/07/07 04:01:16;;;;;;;10.38;8.68;;;13.10;99.90;;;;;;5089206;28;20039;-73
2023/07/07 04:03:42;;;;;;;9.52;7.28;;;13.10;99.90;;;;;;5080250;28;20434;-75
2023/07/07 04:06:09;;;;;;;11.50;8.07;;;13.20;99.90;;;;;;5089672;28;20058;-72
2023/07/07 04:08:35;;;;;;;12.85;9.07;;;13.20;99.90;;;;;;5081360;28;20040;-75
2023/07/07 04:11:27;;;;;;;10.10;8.07;;;13.20;99.90;;;;;;5089515;28;20043;-75
2023/07/07 04:13:52;;;;;;;13.52;7.75;;;13.30;99.90;;;;;;5086510;28;20056;-75
2023/07/07 04:16:23;;;;;;;10.93;7.70;;;13.30;99.90;;;;;;5088077;28;20115;-74
2023/07/07 04:18:50;;;;;;;10.85;8.18;;;13.40;99.90;;;;;;5087724;28;20193;-75
2023/07/07 04:21:21;;;;;;;10.65;8.55;;;13.40;99.90;;;;;;5087336;28;20439;-75
2023/07/07 04:23:48;;;;;;;11.25;9.23;;;13.40;99.90;;;;;;5087796;28;20039;-74
2023/07/07 04:26:16;;;;;;;11.77;8.18;;;13.50;99.90;;;;;;5065769;28;20125;-74
2023/07/07 04:28:41;;;;;;;11.32;8.77;;;13.50;99.90;;;;;;5099273;28;20123;-75
2023/07/07 04:31:10;;;;;;;13.30;8.70;;;13.60;99.90;;;;;;5089779;28;20115;-75
2023/07/07 04:33:36;;;;;;;14.07;9.93;;;13.70;99.90;;;;;;5087501;28;20032;-75
2023/07/07 04:36:04;;;;;;;13.95;9.60;;;13.70;99.90;;;;;;5088085;28;20040;-75
2023/07/07 04:38:31;;;;;;;14.05;10.52;;;13.80;99.90;;;;;;5080099;28;20072;-74
2023/07/07 04:41:05;;;;;;;12.25;10.07;;;13.90;99.90;;;;;;5088747;28;20406;-75
2023/07/07 04:43:32;;;;;;;14.23;10.25;;;14.00;99.90;;;;;;5088507;28;20127;-75
2023/07/07 04:45:59;;;;;;;14.35;10.40;;;14.00;99.90;;;;;;5089065;28;20059;-75
2023/07/07 04:48:24;;;;;;;11.00;8.98;;;14.10;99.90;;;;;;5088657;28;20036;-73
2023/07/07 04:50:55;;;;;;;15.27;11.32;;;14.20;99.90;;;;;;5088706;28;20116;-75
2023/07/07 04:53:21;;;;;;;14.35;11.35;;;14.20;99.90;;;;;;5088140;28;20078;-74
2023/07/07 04:55:46;;;;;;;21.55;11.18;;;14.30;99.90;;;;;;5086667;28;20455;-74
2023/07/07 04:58:12;;;;;;;16.70;11.50;;;14.40;99.90;;;;;;5086329;28;20040;-75
2023/07/07 05:00:37;;;;;;;16.63;11.70;;;14.40;99.90;;;;;;5069668;28;20123;-74
2023/07/07 05:03:04;;;;;;;15.32;10.63;;;14.50;99.90;;;;;;5073286;28;20033;-74
2023/07/07 05:05:29;;;;;;;15.40;10.13;;;14.60;99.90;;;;;;5091635;28;20040;-75
2023/07/07 05:07:55;;;;;;;14.95;11.43;;;14.70;99.90;;;;;;5091123;28;20066;-74
2023/07/07 05:10:20;;;;;;;16.63;11.65;;;14.80;99.90;;;;;;5070183;28;20043;-75
2023/07/07 05:12:46;;;;;;;14.60;12.57;;;14.90;99.90;;;;;;5092426;28;20046;-75
2023/07/07 05:15:11;;;;;;;14.77;11.38;;;14.90;99.90;;;;;;5084653;28;20101;-74
2023/07/07 05:17:37;;;;;;;14.63;11.07;;;15.00;99.90;;;;;;5093235;28;20038;-74
2023/07/07 05:20:03;;;;;;;16.10;11.75;;;15.10;99.90;;;;;;5088819;28;20043;-75
2023/07/07 05:22:29;;;;;;;15.52;11.50;;;15.20;99.90;;;;;;5092876;28;20040;-74
2023/07/07 05:24:54;;;;;;;14.85;10.55;;;15.30;99.90;;;;;;5090988;28;20046;-75
2023/07/07 05:27:20;;;;;;;14.75;11.25;;;15.40;99.90;;;;;;5092196;28;20499;-76
2023/07/07 05:29:45;;;;;;;14.10;11.50;;;15.50;99.90;;;;;;5091491;28;20097;-74
2023/07/07 05:32:11;;;;;;;15.18;11.25;;;15.60;99.90;;;;;;5091831;28;20570;-75
2023/07/07 05:34:37;;;;;;;16.60;11.45;;;15.70;99.90;;;;;;5090863;28;20036;-75
2023/07/07 05:37:02;;;;;;;17.13;11.60;;;15.80;99.90;;;;;;5092047;28;20042;-75
2023/07/07 05:39:28;;;;;;;15.52;10.38;;;15.90;99.90;;;;;;5092125;28;20040;-75
2023/07/07 05:41:53;;;;;;;18.30;11.77;;;16.00;99.90;;;;;;5090012;28;20068;-74
2023/07/07 05:44:19;;;;;;;14.90;11.40;;;16.10;99.90;;;;;;5083497;28;20552;-75
2023/07/07 05:46:44;;;;;;;15.73;11.20;;;16.20;99.90;;;;;;5092112;28;20115;-75
2023/07/07 05:49:10;;;;;;;17.27;10.82;;;16.30;99.90;;;;;;5091300;28;20075;-75
2023/07/07 05:51:35;;;;;;;17.05;11.20;;;16.30;99.90;;;;;;5091176;28;20086;-74
2023/07/07 05:54:01;;;;;;;15.45;11.27;;;16.50;99.90;;;;;;5091125;28;20044;-75
2023/07/07 05:56:27;;;;;;;15.02;10.55;;;16.50;99.90;;;;;;5091243;28;20472;-74
2023/07/07 05:58:54;;;;;;;13.25;11.82;;;16.60;99.90;;;;;;5092581;28;20039;-74
2023/07/07 06:01:20;;;;;;;16.80;10.82;;;16.70;99.90;;;;;;5085469;28;20122;-74
2023/07/07 06:03:46;;;;;;;15.18;10.80;;;16.80;99.90;;;;;;5087698;28;20556;-74
2023/07/07 06:06:12;;;;;;;17.30;11.25;;;16.90;99.90;;;;;;5080302;28;20067;-74
2023/07/07 06:08:39;;;;;;;13.48;10.30;;;17.10;99.90;;;;;;5092271;28;20035;-75
2023/07/07 06:11:06;;;;;;;12.80;10.50;;;17.20;99.90;;;;;;5091255;28;20032;-74
2023/07/07 06:13:32;;;;;;;14.07;10.38;;;17.30;99.90;;;;;;5091056;28;20465;-74
2023/07/07 06:15:58;;;;;;;14.63;10.25;;;17.40;99.90;;;;;;5091346;28;20052;-74
2023/07/07 06:18:24;;;;;;;13.15;10.20;;;17.50;99.90;;;;;;5091044;28;20036;-74
2023/07/07 06:20:52;;;;;;;13.95;10.57;;;17.60;99.90;;;;;;5088119;28;20043;-73
2023/07/07 06:23:19;;;;;;;12.05;9.48;;;17.80;99.90;;;;;;5078920;28;20067;-75
2023/07/07 06:25:44;;;;;;;17.40;9.93;;;17.90;99.90;;;;;;5073809;28;20048;-74
2023/07/07 06:28:10;;;;;;;13.43;9.40;;;17.90;99.90;;;;;;5090326;28;20145;-74
2023/07/07 06:30:36;;;;;;;15.10;9.52;;;18.00;99.90;;;;;;5088890;28;20104;-74
2023/07/07 06:33:02;;;;;;;12.25;8.98;;;18.20;99.90;;;;;;5068199;28;20032;-74
2023/07/07 06:35:28;;;;;;;15.65;9.50;;;18.40;99.90;;;;;;5088109;28;20036;-74
2023/07/07 06:37:54;;;;;;;12.80;8.63;;;18.50;99.90;;;;;;5089928;28;20044;-74
2023/07/07 06:40:19;;;;;;;14.77;9.50;;;18.50;99.90;;;;;;5091927;28;20554;-75
2023/07/07 06:42:45;;;;;;;11.82;8.90;;;18.70;99.90;;;;;;5078762;28;20052;-75
2023/07/07 06:45:10;;;;;;;12.73;7.82;;;18.70;99.90;;;;;;5090721;28;20040;-75
2023/07/07 06:47:36;;;;;;;12.70;8.52;;;18.80;99.90;;;;;;5089809;28;20071;-75
2023/07/07 06:50:02;;;;;;;12.45;8.43;;;18.90;99.90;;;;;;5088340;28;20063;-75
2023/07/07 06:52:27;;;;;;;10.73;8.02;;;19.10;99.90;;;;;;5087306;28;20047;-75
2023/07/07 06:54:54;;;;;;;11.82;7.50;;;19.20;99.90;;;;;;5087644;28;20403;-75
2023/07/07 06:57:21;;;;;;;10.80;7.20;;;19.40;99.90;;;;;;5087887;28;20075;-75
2023/07/07 06:59:46;;;;;;;10.23;7.47;;;19.50;99.90;;;;;;5088187;28;20028;-75
2023/07/07 07:02:13;;;;;;;11.90;8.20;;;19.50;99.90;;;;;;5072692;28;20044;-75
2023/07/07 07:04:41;;;;;;;10.02;6.80;;;19.60;99.90;;;;;;5089364;28;20052;-75
2023/07/07 07:07:09;;;;;;;11.48;7.68;;;19.70;99.90;;;;;;5091384;28;20127;-76
2023/07/07 07:09:34;;;;;;;9.20;5.80;;;19.80;99.90;;;;;;5074269;28;20036;-76
2023/07/07 07:12:00;;;;;;;10.07;7.00;;;19.80;99.90;;;;;;5091134;28;20109;-75
2023/07/07 07:14:25;;;;;;;10.70;6.53;;;19.90;99.90;;;;;;5091070;28;20380;-75
2023/07/07 07:16:51;;;;;;;10.77;6.72;;;20.00;99.90;;;;;;5091521;28;20035;-75
2023/07/07 07:19:16;;;;;;;9.05;6.20;;;20.10;99.90;;;;;;5092499;28;20044;-75
2023/07/07 07:21:42;;;;;;;9.65;6.13;;;20.30;99.90;;;;;;5092594;28;20043;-75
2023/07/07 07:24:08;;;;;;;8.55;6.20;;;20.40;99.90;;;;;;5091856;28;20044;-75
2023/07/07 07:26:33;;;;;;;8.85;6.13;;;20.50;99.90;;;;;;5092016;28;20051;-75
2023/07/07 07:28:59;;;;;;;8.55;5.90;;;20.60;99.90;;;;;;5089910;28;20044;-75
2023/07/07 07:31:26;;;;;;;6.80;5.22;;;20.70;99.90;;;;;;5090902;28;20036;-75
2023/07/07 07:33:53;;;;;;;9.27;5.90;;;20.80;99.90;;;;;;5089091;28;20044;-75
2023/07/07 07:36:20;;;;;;;6.78;5.05;;;20.90;99.90;;;;;;5088850;28;20105;-75
2023/07/07 07:38:46;;;;;;;11.13;4.88;;;21.00;99.90;;;;;;5086928;28;20389;-75
2023/07/07 07:41:11;;;;;;;8.07;4.45;;;21.20;99.90;;;;;;5087902;28;20066;-75
2023/07/07 07:43:37;;;;;;;8.38;4.75;;;21.30;99.90;;;;;;5087327;28;20036;-75
2023/07/07 07:46:02;;;;;;;7.78;4.30;;;21.30;99.90;;;;;;5090917;28;20081;-75
2023/07/07 07:48:28;;;;;;;6.43;3.85;;;21.40;99.90;;;;;;5085413;28;20388;-75
2023/07/07 07:50:53;;;;;;;6.28;3.70;;;21.50;99.90;;;;;;5083925;28;20499;-75
2023/07/07 07:53:19;;;;;;;6.63;3.83;;;21.70;99.90;;;;;;5090233;28;20139;-75
2023/07/07 07:55:45;;;;;;;5.18;3.22;;;21.80;99.90;;;;;;5088481;28;20056;-75
2023/07/07 07:58:10;;;;;;;6.95;3.80;;;21.90;99.90;;;;;;5088661;28;20024;-75
2023/07/07 08:00:36;;;;;;;6.20;3.30;;;22.10;99.90;;;;;;5086448;28;20173;-75
2023/07/07 08:03:01;;;;;;;5.93;3.50;;;22.20;99.90;;;;;;5087359;28;20050;-75
2023/07/07 08:05:27;;;;;;;8.02;3.25;;;22.20;99.90;;;;;;5078711;28;20560;-76
2023/07/07 08:07:52;;;;;;;5.88;2.85;;;22.30;99.90;;;;;;5074383;28;20035;-75
2023/07/07 08:10:18;;;;;;;4.97;2.80;;;22.30;99.90;;;;;;5081875;28;20078;-75
2023/07/07 08:12:43;;;;;;;7.10;2.75;;;22.40;99.90;;;;;;5080746;28;20503;-75
2023/07/07 08:15:11;;;;;;;8.75;3.35;;;22.50;99.90;;;;;;5079971;28;20035;-75
2023/07/07 08:17:36;;;;;;;4.60;2.75;;;22.60;99.90;;;;;;5074161;28;20040;-76
2023/07/07 08:20:03;;;;;;;5.05;2.97;;;22.70;99.90;;;;;;5072512;28;20036;-74
2023/07/07 08:22:28;;;;;;;5.75;3.00;;;22.80;99.90;;;;;;5081363;28;20283;-76
2023/07/07 08:24:57;;;;;;;9.18;3.10;;;23.00;99.90;;;;;;5081889;28;20540;-75
2023/07/07 08:27:24;;;;;;;7.82;2.60;;;23.00;99.90;;;;;;5077226;28;20410;-76
2023/07/07 08:29:50;;;;;;;4.32;2.40;;;23.10;99.90;;;;;;5076244;28;20070;-76
2023/07/07 08:32:18;;;;;;;5.00;2.50;;;23.10;99.90;;;;;;5075829;28;20089;-75
2023/07/07 08:34:44;;;;;;;4.93;2.70;;;23.10;99.90;;;;;;5079080;28;20036;-76
2023/07/07 08:37:10;;;;;;;3.92;2.50;;;23.10;99.90;;;;;;5056862;28;20041;-75
2023/07/07 08:39:36;;;;;;;4.63;2.53;;;23.20;99.90;;;;;;5086206;28;20046;-75
2023/07/07 08:42:11;;;;;;;6.90;2.47;;;23.40;99.90;;;;;;5084950;28;20409;-75
2023/07/07 08:44:37;;;;;;;5.80;2.60;;;23.50;99.90;;;;;;5061032;28;20036;-75
2023/07/07 08:47:09;;;;;;;3.97;2.65;;;23.60;99.90;;;;;;5076944;28;20085;-75
2023/07/07 08:49:43;;;;;;;4.78;2.20;;;23.60;99.90;;;;;;5086384;28;20594;-75
2023/07/07 08:52:37;;;;;;;4.90;2.20;;;23.70;99.90;;;;;;5089461;28;20121;-75
2023/07/07 08:55:17;;;;;;;3.65;1.98;;;23.70;99.90;;;;;;5089909;28;20032;-74
2023/07/07 08:58:00;;;;;;;4.65;2.25;;;23.70;99.90;;;;;;5089894;28;20048;-75
2023/07/07 09:00:52;;;;;;;3.65;2.03;;;23.70;99.90;;;;;;5090137;28;20044;-75
2023/07/07 09:03:45;;;;;;;4.45;2.15;;;23.80;99.90;;;;;;5072705;28;20040;-74
2023/07/07 09:06:39;;;;;;;6.97;2.70;;;23.80;99.90;;;;;;5089753;28;20036;-74
2023/07/07 09:09:42;;;;;;;5.10;2.35;;;23.70;99.90;;;;;;5089594;28;20036;-74
2023/07/07 09:12:29;;;;;;;6.70;2.85;;;23.70;99.90;;;;;;5011549;28;20045;-74
2023/07/07 09:14:58;;;;;;;3.58;2.13;;;23.70;99.90;;;;;;5083587;28;20044;-74
2023/07/07 09:17:30;;;;;;;3.92;1.90;;;23.80;99.90;;;;;;5089874;28;20399;-73
2023/07/07 09:19:57;;;;;;;4.45;2.05;;;23.90;99.90;;;;;;5088883;28;20040;-73
2023/07/07 09:22:41;;;;;;;4.03;1.98;;;23.90;99.90;;;;;;5089240;28;20083;-73
2023/07/07 09:25:32;;;;;;;3.70;2.22;;;24.00;99.90;;;;;;5089347;28;20059;-74
2023/07/07 09:28:02;;;;;;;4.30;2.33;;;24.00;99.90;;;;;;5088832;28;20058;-74
2023/07/07 09:30:33;;;;;;;4.45;2.20;;;24.00;99.90;;;;;;5053611;28;20076;-74
2023/07/07 09:32:59;;;;;;;3.10;2.00;;;24.10;99.90;;;;;;5081464;28;20403;-74
2023/07/07 09:35:35;;;;;;;5.28;2.15;;;24.10;99.90;;;;;;5087160;28;20391;-74
2023/07/07 09:38:25;;;;;;;4.53;2.03;;;24.20;99.90;;;;;;5086988;28;20040;-75
2023/07/07 09:40:55;;;;;;;3.85;2.20;;;24.20;98.00;;;;;;5087509;28;20040;-74
2023/07/07 09:43:32;;;;;;;3.05;2.03;;;24.20;99.50;;;;;;5087542;28;20093;-74
2023/07/07 09:46:14;;;;;;;3.17;2.05;;;24.30;99.80;;;;;;5088881;28;20036;-74
2023/07/07 09:48:50;;;;;;;4.20;2.17;;;24.30;99.10;;;;;;5091423;28;20040;-74
2023/07/07 09:51:18;;;;;;;4.95;1.95;;;24.40;99.90;;;;;;5073885;28;20529;-74
2023/07/07 09:53:46;;;;;;;3.25;1.90;;;24.40;99.90;;;;;;5091714;28;20040;-74
2023/07/07 09:56:19;;;;;;;4.03;2.30;;;24.50;99.80;;;;;;5092837;28;20119;-74
2023/07/07 09:58:54;;;;;;;4.53;2.42;;;24.60;99.90;;;;;;5092809;28;20036;-75
2023/07/07 10:01:21;;;;;;;4.72;2.30;;;24.70;99.90;;;;;;5092652;28;20050;-75
2023/07/07 10:03:48;;;;;;;4.82;2.00;;;24.80;99.90;;;;;;5092559;28;20513;-75
2023/07/07 10:06:22;;;;;;;4.38;2.30;;;24.80;99.70;;;;;;5092789;28;20079;-74
2023/07/07 10:08:48;;;;;;;3.40;2.30;;;24.90;99.30;;;;;;5075553;28;20563;-74
2023/07/07 10:11:23;;;;;;;4.72;2.30;;;24.90;99.30;;;;;;5092283;28;20123;-73
2023/07/07 10:13:50;;;;;;;4.03;2.10;;;24.90;99.10;;;;;;5092258;28;20560;-73
2023/07/07 10:16:57;;;;;;;5.22;2.22;;;25.00;99.40;;;;;;5092538;28;20451;-73
2023/07/07 10:19:24;;;;;;;4.60;2.22;;;25.10;99.90;;;;;;5108676;28;20059;-73
2023/07/07 10:21:51;;;;;;;7.85;2.50;;;25.30;99.90;;;;;;5090947;28;20447;-75
2023/07/07 10:24:16;;;;;;;2.90;2.00;;;25.30;99.60;;;;;;5092243;28;20418;-75
2023/07/07 10:26:47;;;;;;;4.18;2.33;;;25.40;99.30;;;;;;5092059;28;20036;-74
2023/07/07 10:29:21;;;;;;;7.93;2.17;;;25.40;99.00;;;;;;5092170;28;20135;-73
2023/07/07 10:31:48;;;;;;;3.38;2.20;;;25.50;98.40;;;;;;5092252;28;20078;-73
2023/07/07 10:34:33;;;;;;;9.48;2.50;;;25.50;98.60;;;;;;5091779;28;20046;-74
2023/07/07 10:36:59;;;;;;;5.10;2.15;;;25.60;99.90;;;;;;5075542;28;20395;-73
2023/07/07 10:39:31;;;;;;;4.75;2.00;;;25.70;98.80;;;;;;5092163;28;20046;-74
2023/07/07 10:41:57;;;;;;;3.35;1.70;;;25.70;98.40;;;;;;5092105;28;20456;-74
2023/07/07 10:44:25;;;;;;;4.05;2.10;;;25.80;98.30;;;;;;5091890;28;20127;-74
2023/07/07 10:46:50;;;;;;;4.50;2.22;;;25.80;98.20;;;;;;5093240;28;20112;-74
2023/07/07 10:49:18;;;;;;;3.20;1.90;;;25.90;98.20;;;;;;5091856;28;20040;-74
2023/07/07 10:52:02;;;;;;;5.38;2.20;;;26.00;98.10;;;;;;5091574;28;20044;-74
2023/07/07 10:54:34;;;;;;;3.42;1.95;;;26.10;98.20;;;;;;5091740;28;20408;-74
2023/07/07 10:57:29;;;;;;;3.90;2.30;;;26.10;97.40;;;;;;5077063;28;20587;-74
2023/07/07 11:00:23;;;;;;;4.68;2.28;;;26.20;98.10;;;;;;5088659;28;20040;-74
2023/07/07 11:03:01;;;;;;;5.50;2.20;;;26.40;97.30;;;;;;5091353;28;20503;-72
2023/07/07 11:05:47;;;;;;;13.60;2.45;;;26.40;96.60;;;;;;5091347;28;20128;-75
2023/07/07 11:08:22;;;;;;;5.53;1.98;;;26.50;97.10;;;;;;5090103;28;20502;-73
2023/07/07 11:11:17;;;;;;;4.03;1.92;;;26.50;96.20;;;;;;5089830;28;20047;-74
2023/07/07 11:14:12;;;;;;;2.92;1.95;;;26.60;96.70;;;;;;5091083;28;20055;-73
2023/07/07 11:16:52;;;;;;;3.85;2.00;;;26.70;95.90;;;;;;5087664;28;20028;-73
2023/07/07 11:19:42;;;;;;;4.53;2.20;;;26.80;95.40;;;;;;5082900;28;20033;-73
2023/07/07 11:22:28;;;;;;;3.97;1.95;;;26.70;94.90;;;;;;5087664;28;20407;-74
2023/07/07 11:25:19;;;;;;;3.83;2.20;;;26.80;94.10;;;;;;5089570;28;20523;-74
2023/07/07 11:28:03;;;;;;;2.55;2.00;;;26.90;95.10;;;;;;5083800;28;20093;-74
2023/07/07 11:30:51;;;;;;;3.53;2.28;;;27.10;95.60;;;;;;5079443;28;20097;-74
2023/07/07 11:33:46;;;;;;;4.25;2.20;;;27.40;94.40;;;;;;5084834;28;20112;-74
2023/07/07 11:36:40;;;;;;;3.45;1.85;;;27.50;94.70;;;;;;5089565;28;20044;-74
2023/07/07 11:39:22;;;;;;;3.78;2.28;;;27.80;94.20;;;;;;5090061;28;20039;-74
2023/07/07 11:42:13;;;;;;;4.07;2.00;;;28.10;94.70;;;;;;5082163;28;20047;-74
2023/07/07 11:44:50;;;;;;;4.00;2.00;;;28.10;94.90;;;;;;5087705;28;20408;-74
2023/07/07 11:47:35;;;;;;;3.42;2.00;;;28.30;94.90;;;;;;5090133;28;20630;-74
2023/07/07 11:50:27;;;;;;;3.17;2.10;;;28.60;95.50;;;;;;5090745;28;20465;-74
2023/07/07 11:53:21;;;;;;;4.50;2.40;;;28.70;94.40;;;;;;5071078;28;20067;-75
2023/07/07 11:55:59;;;;;;;3.80;2.03;;;28.80;93.30;;;;;;5071961;28;20052;-75
2023/07/07 11:58:46;;;;;;;2.95;1.88;;;28.70;93.00;;;;;;5088781;28;20047;-75
2023/07/07 12:01:18;;;;;;;3.97;1.98;;;28.90;93.50;;;;;;5088927;28;20587;-74
2023/07/07 12:03:57;;;;;;;4.63;2.10;;;29.00;93.40;;;;;;5062705;28;20147;-75
2023/07/07 12:06:37;;;;;;;3.00;2.10;;;29.00;92.60;;;;;;5079134;28;20490;-75
2023/07/07 12:09:26;;;;;;;2.97;1.83;;;29.10;91.60;;;;;;5089981;28;20149;-75
2023/07/07 12:12:09;;;;;;;3.67;2.10;;;29.40;92.40;;;;;;5080880;28;20083;-75
2023/07/07 12:14:45;;;;;;;2.72;1.90;;;29.60;92.40;;;;;;5074356;28;20401;-76
2023/07/07 12:17:16;;;;;;;4.05;2.08;;;29.80;91.80;;;;;;5086341;28;20036;-76
2023/07/07 12:19:46;;;;;;;4.38;2.00;;;29.90;90.30;;;;;;5078827;28;20032;-76
2023/07/07 12:22:19;;;;;;;4.10;2.17;;;29.90;91.20;;;;;;5078462;28;20027;-76
2023/07/07 12:24:49;;;;;;;;;;;29.90;91.10;;;;;;5081992;28;20043;-77
2023/07/07 12:27:45;;;;;;;2.70;1.98;;;29.90;90.70;;;;;;5083745;28;19916;-76
2023/07/07 12:30:20;;;;;;;2.30;1.88;;;29.90;90.00;;;;;;5076329;28;20049;-76
2023/07/07 12:32:46;;;;;;;4.32;2.10;;;30.00;90.40;;;;;;5082578;28;20047;-76
2023/07/07 12:35:42;;;;;;;4.82;2.10;;;30.00;91.40;;;;;;5066918;28;20040;-76
2023/07/07 12:38:31;;;;;;;3.90;1.75;;;30.10;91.40;;;;;;5079157;28;20451;-76
2023/07/07 12:41:03;;;;;;;3.60;2.28;;;30.30;92.00;;;;;;5077591;28;20492;-77
2023/07/07 12:43:35;;;;;;;3.15;1.67;;;30.30;91.20;;;;;;5077615;28;20462;-77
2023/07/07 12:46:03;;;;;;;3.80;1.80;;;30.40;90.90;;;;;;5079396;28;20051;-76
2023/07/07 12:48:29;;;;;;;3.30;2.13;;;30.50;90.90;;;;;;5059541;28;20461;-74
2023/07/07 12:51:04;;;;;;;4.85;2.42;;;30.60;90.90;;;;;;5078530;28;20036;-77
2023/07/07 12:53:41;;;;;;;4.63;2.00;;;30.60;90.20;;;;;;5076239;28;20071;-78
2023/07/07 12:56:07;;;;;;;4.10;2.10;;;30.50;90.60;;;;;;5074373;28;20029;-78
2023/07/07 12:58:39;;;;;;;5.68;2.00;;;30.50;90.30;;;;;;5069845;28;20066;-78
2023/07/07 13:01:17;;;;;;;4.20;2.08;;;30.60;90.40;;;;;;5077570;28;20066;-77